sensor_id;sensor_type;location;lat;lon;timestamp;pressure;altitude;pressure_sealevel;temperature;humidity
36138;BME280;67787;50.074;21.904;2023-02-28T00:01:28;100353.33;;;-1.98;56.87
36138;BME280;67787;50.074;21.904;2023-02-28T00:03:57;100350.38;;;-1.97;56.89
36138;BME280;67787;50.074;21.904;2023-02-28T00:06:26;100361.67;;;-1.97;57.00
36138;BME280;67787;50.074;21.904;2023-02-28T00:08:54;100362.73;;;-1.97;57.07
36138;BME280;67787;50.074;21.904;2023-02-28T00:11:23;100365.67;;;-1.97;56.73
36138;BME280;67787;50.074;21.904;2023-02-28T00:13:51;100366.20;;;-1.96;56.89
36138;BME280;67787;50.074;21.904;2023-02-28T00:16:21;100366.89;;;-1.95;57.14
36138;BME280;67787;50.074;21.904;2023-02-28T00:18:50;100367.25;;;-1.97;56.88
36138;BME280;67787;50.074;21.904;2023-02-28T00:21:19;100369.15;;;-2.01;56.89
36138;BME280;67787;50.074;21.904;2023-02-28T00:23:47;100371.77;;;-2.07;57.19
36138;BME280;67787;50.074;21.904;2023-02-28T00:26:16;100375.59;;;-2.12;56.95
36138;BME280;67787;50.074;21.904;2023-02-28T00:28:46;100374.71;;;-2.16;56.93
36138;BME280;67787;50.074;21.904;2023-02-28T00:31:15;100376.44;;;-2.20;57.29
36138;BME280;67787;50.074;21.904;2023-02-28T00:33:43;100373.33;;;-2.21;57.23
36138;BME280;67787;50.074;21.904;2023-02-28T00:36:11;100371.07;;;-2.25;57.02
36138;BME280;67787;50.074;21.904;2023-02-28T00:38:40;100369.33;;;-2.29;57.13
36138;BME280;67787;50.074;21.904;2023-02-28T00:41:09;100363.59;;;-2.32;57.28
36138;BME280;67787;50.074;21.904;2023-02-28T00:43:38;100362.53;;;-2.35;57.16
36138;BME280;67787;50.074;21.904;2023-02-28T00:46:07;100365.49;;;-2.34;57.42
36138;BME280;67787;50.074;21.904;2023-02-28T00:48:35;100365.83;;;-2.37;57.42
36138;BME280;67787;50.074;21.904;2023-02-28T00:51:04;100359.75;;;-2.41;57.51
36138;BME280;67787;50.074;21.904;2023-02-28T00:53:33;100360.96;;;-2.44;57.58
36138;BME280;67787;50.074;21.904;2023-02-28T00:56:01;100361.31;;;-2.44;57.78
36138;BME280;67787;50.074;21.904;2023-02-28T00:58:29;100364.26;;;-2.41;57.54
36138;BME280;67787;50.074;21.904;2023-02-28T01:00:57;100361.31;;;-2.42;57.72
36138;BME280;67787;50.074;21.904;2023-02-28T01:03:25;100357.32;;;-2.48;57.61
36138;BME280;67787;50.074;21.904;2023-02-28T01:05:54;100360.25;;;-2.52;57.44
36138;BME280;67787;50.074;21.904;2023-02-28T01:08:22;100360.27;;;-2.51;57.61
36138;BME280;67787;50.074;21.904;2023-02-28T01:10:50;100361.48;;;-2.51;57.59
36138;BME280;67787;50.074;21.904;2023-02-28T01:13:20;100356.61;;;-2.52;57.87
36138;BME280;67787;50.074;21.904;2023-02-28T01:15:53;100360.77;;;-2.54;57.65
36138;BME280;67787;50.074;21.904;2023-02-28T01:18:23;100364.94;;;-2.56;57.89
36138;BME280;67787;50.074;21.904;2023-02-28T01:20:52;100367.89;;;-2.59;57.79
36138;BME280;67787;50.074;21.904;2023-02-28T01:23:22;100368.40;;;-2.64;57.90
36138;BME280;67787;50.074;21.904;2023-02-28T01:25:51;100373.43;;;-2.68;57.68
36138;BME280;67787;50.074;21.904;2023-02-28T01:28:19;100377.06;;;-2.71;57.98
36138;BME280;67787;50.074;21.904;2023-02-28T01:30:49;100376.88;;;-2.76;58.01
36138;BME280;67787;50.074;21.904;2023-02-28T01:33:18;100377.91;;;-2.81;57.88
36138;BME280;67787;50.074;21.904;2023-02-28T01:35:46;100377.02;;;-2.86;57.68
36138;BME280;67787;50.074;21.904;2023-02-28T01:38:15;100378.59;;;-2.87;57.94
36138;BME280;67787;50.074;21.904;2023-02-28T01:40:50;100378.40;;;-2.85;57.94
36138;BME280;67787;50.074;21.904;2023-02-28T01:43:25;100379.98;;;-2.84;57.83
36138;BME280;67787;50.074;21.904;2023-02-28T01:45:55;100381.02;;;-2.88;57.90
36138;BME280;67787;50.074;21.904;2023-02-28T01:48:30;100376.15;;;-2.90;58.02
36138;BME280;67787;50.074;21.904;2023-02-28T01:51:01;100375.80;;;-2.89;57.94
36138;BME280;67787;50.074;21.904;2023-02-28T01:53:36;100371.11;;;-2.88;58.08
36138;BME280;67787;50.074;21.904;2023-02-28T01:56:06;100375.27;;;-2.89;58.12
36138;BME280;67787;50.074;21.904;2023-02-28T01:58:37;100377.01;;;-2.89;58.16
36138;BME280;67787;50.074;21.904;2023-02-28T02:01:05;100378.40;;;-2.88;58.03
36138;BME280;67787;50.074;21.904;2023-02-28T02:03:35;100381.71;;;-2.88;58.27
36138;BME280;67787;50.074;21.904;2023-02-28T02:06:03;100384.13;;;-2.91;58.27
36138;BME280;67787;50.074;21.904;2023-02-28T02:08:31;100390.35;;;-2.94;58.15
36138;BME280;67787;50.074;21.904;2023-02-28T02:11:01;100394.84;;;-3.01;58.31
36138;BME280;67787;50.074;21.904;2023-02-28T02:16:23;100394.61;;;-3.13;58.14
36138;BME280;67787;50.074;21.904;2023-02-28T02:26:58;100392.67;;;-3.18;58.75
36138;BME280;67787;50.074;21.904;2023-02-28T02:29:45;100394.23;;;-3.20;58.47
36138;BME280;67787;50.074;21.904;2023-02-28T02:38:33;100383.59;;;-3.33;58.67
36138;BME280;67787;50.074;21.904;2023-02-28T02:46:47;100374.86;;;-3.42;58.72
36138;BME280;67787;50.074;21.904;2023-02-28T02:49:23;100369.29;;;-3.45;58.69
36138;BME280;67787;50.074;21.904;2023-02-28T02:51:53;100371.02;;;-3.46;58.97
36138;BME280;67787;50.074;21.904;2023-02-28T02:54:30;100367.39;;;-3.48;58.98
36138;BME280;67787;50.074;21.904;2023-02-28T02:57:06;100368.77;;;-3.48;59.14
36138;BME280;67787;50.074;21.904;2023-02-28T02:59:38;100366.86;;;-3.45;59.13
36138;BME280;67787;50.074;21.904;2023-02-28T03:02:11;100366.18;;;-3.42;58.83
36138;BME280;67787;50.074;21.904;2023-02-28T03:04:46;100366.37;;;-3.41;59.13
36138;BME280;67787;50.074;21.904;2023-02-28T03:07:16;100363.75;;;-3.44;58.73
36138;BME280;67787;50.074;21.904;2023-02-28T03:09:55;100364.95;;;-3.48;58.93
36138;BME280;67787;50.074;21.904;2023-02-28T03:12:29;100367.86;;;-3.55;58.95
36138;BME280;67787;50.074;21.904;2023-02-28T03:15:19;100365.39;;;-3.62;59.21
36138;BME280;67787;50.074;21.904;2023-02-28T03:18:08;100364.14;;;-3.66;59.02
36138;BME280;67787;50.074;21.904;2023-02-28T03:26:26;100370.36;;;-3.72;59.28
36138;BME280;67787;50.074;21.904;2023-02-28T03:34:56;100375.36;;;-3.75;59.51
36138;BME280;67787;50.074;21.904;2023-02-28T03:37:29;100377.07;;;-3.78;59.39
36138;BME280;67787;50.074;21.904;2023-02-28T03:40:04;100385.20;;;-3.80;59.30
36138;BME280;67787;50.074;21.904;2023-02-28T03:42:37;100392.83;;;-3.81;59.26
36138;BME280;67787;50.074;21.904;2023-02-28T03:45:11;100393.85;;;-3.83;59.50
36138;BME280;67787;50.074;21.904;2023-02-28T03:47:48;100391.92;;;-3.84;59.40
36138;BME280;67787;50.074;21.904;2023-02-28T03:50:22;100391.57;;;-3.88;59.34
36138;BME280;67787;50.074;21.904;2023-02-28T03:53:24;100396.23;;;-3.89;59.44
36138;BME280;67787;50.074;21.904;2023-02-28T03:55:52;100403.52;;;-3.85;59.27
36138;BME280;67787;50.074;21.904;2023-02-28T03:58:51;100402.16;;;-3.84;59.58
36138;BME280;67787;50.074;21.904;2023-02-28T04:01:34;100397.81;;;-3.84;59.55
36138;BME280;67787;50.074;21.904;2023-02-28T04:04:04;100393.65;;;-3.84;59.53
36138;BME280;67787;50.074;21.904;2023-02-28T04:06:33;100388.98;;;-3.83;59.30
36138;BME280;67787;50.074;21.904;2023-02-28T04:09:02;100385.38;;;-3.80;59.57
36138;BME280;67787;50.074;21.904;2023-02-28T04:11:46;100389.36;;;-3.78;59.37
36138;BME280;67787;50.074;21.904;2023-02-28T04:14:17;100389.36;;;-3.81;59.68
36138;BME280;67787;50.074;21.904;2023-02-28T04:16:45;100386.02;;;-3.85;59.51
36138;BME280;67787;50.074;21.904;2023-02-28T04:19:14;100387.74;;;-3.89;59.64
36138;BME280;67787;50.074;21.904;2023-02-28T04:21:43;100384.95;;;-3.92;59.55
36138;BME280;67787;50.074;21.904;2023-02-28T04:24:21;100389.28;;;-3.93;59.68
36138;BME280;67787;50.074;21.904;2023-02-28T04:26:51;100389.77;;;-3.94;59.62
36138;BME280;67787;50.074;21.904;2023-02-28T04:29:22;100392.75;;;-3.91;59.69
36138;BME280;67787;50.074;21.904;2023-02-28T04:31:52;100398.45;;;-3.93;59.61
36138;BME280;67787;50.074;21.904;2023-02-28T04:34:27;100396.16;;;-3.96;59.64
36138;BME280;67787;50.074;21.904;2023-02-28T04:36:55;100398.55;;;-4.01;59.45
36138;BME280;67787;50.074;21.904;2023-02-28T04:39:39;100398.54;;;-4.02;59.71
36138;BME280;67787;50.074;21.904;2023-02-28T04:42:07;100399.05;;;-4.04;59.72
36138;BME280;67787;50.074;21.904;2023-02-28T04:44:36;100400.44;;;-4.05;59.69
36138;BME280;67787;50.074;21.904;2023-02-28T04:47:03;100399.92;;;-4.03;59.98
36138;BME280;67787;50.074;21.904;2023-02-28T04:49:31;100402.16;;;-4.06;59.83
36138;BME280;67787;50.074;21.904;2023-02-28T04:51:59;100404.73;;;-4.08;59.78
36138;BME280;67787;50.074;21.904;2023-02-28T04:54:27;100405.77;;;-4.11;59.81
36138;BME280;67787;50.074;21.904;2023-02-28T04:56:55;100408.35;;;-4.12;60.04
36138;BME280;67787;50.074;21.904;2023-02-28T04:59:24;100408.27;;;-4.19;59.71
36138;BME280;67787;50.074;21.904;2023-02-28T05:01:52;100410.46;;;-4.26;59.77
36138;BME280;67787;50.074;21.904;2023-02-28T05:04:20;100410.80;;;-4.26;59.91
36138;BME280;67787;50.074;21.904;2023-02-28T05:06:49;100411.84;;;-4.27;59.94
36138;BME280;67787;50.074;21.904;2023-02-28T05:09:17;100413.39;;;-4.29;59.86
36138;BME280;67787;50.074;21.904;2023-02-28T05:11:44;100415.63;;;-4.28;59.90
36138;BME280;67787;50.074;21.904;2023-02-28T05:14:13;100419.11;;;-4.27;59.91
36138;BME280;67787;50.074;21.904;2023-02-28T05:16:42;100421.36;;;-4.28;59.99
36138;BME280;67787;50.074;21.904;2023-02-28T05:19:10;100422.73;;;-4.28;60.08
36138;BME280;67787;50.074;21.904;2023-02-28T05:21:41;100429.30;;;-4.30;59.99
36138;BME280;67787;50.074;21.904;2023-02-28T05:24:11;100431.22;;;-4.30;60.11
36138;BME280;67787;50.074;21.904;2023-02-28T05:26:41;100433.80;;;-4.30;60.20
36138;BME280;67787;50.074;21.904;2023-02-28T05:29:09;100434.66;;;-4.33;59.90
36138;BME280;67787;50.074;21.904;2023-02-28T05:31:37;100432.55;;;-4.36;60.13
36138;BME280;67787;50.074;21.904;2023-02-28T05:34:06;100434.75;;;-4.40;59.99
36138;BME280;67787;50.074;21.904;2023-02-28T05:36:36;100432.45;;;-4.44;60.28
36138;BME280;67787;50.074;21.904;2023-02-28T05:39:08;100434.19;;;-4.44;60.18
36138;BME280;67787;50.074;21.904;2023-02-28T05:41:41;100435.10;;;-4.40;60.27
36138;BME280;67787;50.074;21.904;2023-02-28T05:44:10;100438.95;;;-4.36;60.26
36138;BME280;67787;50.074;21.904;2023-02-28T05:46:38;100440.05;;;-4.30;60.48
36138;BME280;67787;50.074;21.904;2023-02-28T05:49:06;100444.23;;;-4.27;60.32
36138;BME280;67787;50.074;21.904;2023-02-28T05:51:34;100451.05;;;-4.20;60.29
36138;BME280;67787;50.074;21.904;2023-02-28T05:54:04;100451.27;;;-4.16;60.40
36138;BME280;67787;50.074;21.904;2023-02-28T05:56:32;100461.02;;;-4.11;60.49
36138;BME280;67787;50.074;21.904;2023-02-28T05:59:02;100462.78;;;-4.09;60.56
36138;BME280;67787;50.074;21.904;2023-02-28T06:01:36;100462.40;;;-4.11;60.50
36138;BME280;67787;50.074;21.904;2023-02-28T06:04:06;100461.39;;;-4.09;60.80
36138;BME280;67787;50.074;21.904;2023-02-28T06:06:38;100464.73;;;-4.03;60.74
36138;BME280;67787;50.074;21.904;2023-02-28T06:09:07;100467.02;;;-3.99;60.77
36138;BME280;67787;50.074;21.904;2023-02-28T06:11:35;100475.56;;;-3.95;60.66
36138;BME280;67787;50.074;21.904;2023-02-28T06:14:03;100474.60;;;-3.85;60.96
36138;BME280;67787;50.074;21.904;2023-02-28T06:16:33;100476.94;;;-3.77;61.05
36138;BME280;67787;50.074;21.904;2023-02-28T06:19:03;100483.60;;;-3.67;61.06
36138;BME280;67787;50.074;21.904;2023-02-28T06:21:31;100485.04;;;-3.60;61.08
36138;BME280;67787;50.074;21.904;2023-02-28T06:23:59;100488.71;;;-3.56;61.19
36138;BME280;67787;50.074;21.904;2023-02-28T06:26:27;100493.60;;;-3.52;61.25
36138;BME280;67787;50.074;21.904;2023-02-28T06:28:56;100492.27;;;-3.44;60.95
36138;BME280;67787;50.074;21.904;2023-02-28T06:31:24;100495.13;;;-3.33;60.88
36138;BME280;67787;50.074;21.904;2023-02-28T06:33:53;100492.59;;;-3.24;60.91
36138;BME280;67787;50.074;21.904;2023-02-28T06:36:22;100495.07;;;-3.17;61.16
36138;BME280;67787;50.074;21.904;2023-02-28T06:38:50;100492.67;;;-3.11;60.91
36138;BME280;67787;50.074;21.904;2023-02-28T06:41:26;100494.10;;;-3.05;60.86
36138;BME280;67787;50.074;21.904;2023-02-28T06:43:55;100495.85;;;-3.02;60.96
36138;BME280;67787;50.074;21.904;2023-02-28T06:46:23;100498.48;;;-2.97;61.23
36138;BME280;67787;50.074;21.904;2023-02-28T06:48:51;100494.52;;;-2.92;60.91
36138;BME280;67787;50.074;21.904;2023-02-28T06:51:20;100499.23;;;-2.88;61.21
36138;BME280;67787;50.074;21.904;2023-02-28T06:53:50;100499.23;;;-2.85;61.44
36138;BME280;67787;50.074;21.904;2023-02-28T06:56:19;100498.39;;;-2.81;61.38
36138;BME280;67787;50.074;21.904;2023-02-28T06:58:49;100501.71;;;-2.77;61.28
36138;BME280;67787;50.074;21.904;2023-02-28T07:01:19;100499.83;;;-2.74;61.42
36138;BME280;67787;50.074;21.904;2023-02-28T07:03:47;100500.70;;;-2.71;61.46
36138;BME280;67787;50.074;21.904;2023-02-28T07:06:21;100501.05;;;-2.69;61.57
36138;BME280;67787;50.074;21.904;2023-02-28T07:08:51;100501.06;;;-2.67;61.59
36138;BME280;67787;50.074;21.904;2023-02-28T07:11:21;100502.48;;;-2.64;61.64
36138;BME280;67787;50.074;21.904;2023-02-28T07:13:50;100500.42;;;-2.56;61.52
36138;BME280;67787;50.074;21.904;2023-02-28T07:16:18;100501.14;;;-2.51;61.62
36138;BME280;67787;50.074;21.904;2023-02-28T07:18:47;100506.36;;;-2.48;61.72
36138;BME280;67787;50.074;21.904;2023-02-28T07:21:15;100510.19;;;-2.44;61.78
36138;BME280;67787;50.074;21.904;2023-02-28T07:23:43;100503.95;;;-2.38;61.63
36138;BME280;67787;50.074;21.904;2023-02-28T07:26:14;100502.77;;;-2.32;61.69
36138;BME280;67787;50.074;21.904;2023-02-28T07:28:45;100504.88;;;-2.26;61.88
36138;BME280;67787;50.074;21.904;2023-02-28T07:31:13;100501.40;;;-2.20;61.62
36138;BME280;67787;50.074;21.904;2023-02-28T07:33:42;100499.85;;;-2.17;61.96
36138;BME280;67787;50.074;21.904;2023-02-28T07:36:14;100500.21;;;-2.12;62.18
36138;BME280;67787;50.074;21.904;2023-02-28T07:38:44;100500.06;;;-2.06;62.48
36138;BME280;67787;50.074;21.904;2023-02-28T07:41:20;100503.20;;;-1.99;61.96
36138;BME280;67787;50.074;21.904;2023-02-28T07:43:48;100497.63;;;-1.92;61.93
36138;BME280;67787;50.074;21.904;2023-02-28T07:46:17;100496.09;;;-1.86;62.04
36138;BME280;67787;50.074;21.904;2023-02-28T07:48:46;100495.56;;;-1.81;61.98
36138;BME280;67787;50.074;21.904;2023-02-28T07:51:14;100497.30;;;-1.76;62.06
36138;BME280;67787;50.074;21.904;2023-02-28T07:53:42;100489.15;;;-1.69;62.52
36138;BME280;67787;50.074;21.904;2023-02-28T07:56:10;100489.66;;;-1.63;62.23
36138;BME280;67787;50.074;21.904;2023-02-28T07:58:38;100486.53;;;-1.58;62.54
36138;BME280;67787;50.074;21.904;2023-02-28T08:01:09;100488.63;;;-1.50;62.41
36138;BME280;67787;50.074;21.904;2023-02-28T08:03:38;100490.53;;;-1.44;62.50
36138;BME280;67787;50.074;21.904;2023-02-28T08:06:09;100488.44;;;-1.37;62.65
36138;BME280;67787;50.074;21.904;2023-02-28T08:08:42;100486.17;;;-1.33;62.75
36138;BME280;67787;50.074;21.904;2023-02-28T08:11:11;100490.52;;;-1.31;62.63
36138;BME280;67787;50.074;21.904;2023-02-28T08:13:39;100492.96;;;-1.29;62.63
36138;BME280;67787;50.074;21.904;2023-02-28T08:16:07;100494.00;;;-1.25;62.57
36138;BME280;67787;50.074;21.904;2023-02-28T08:18:35;100496.59;;;-1.21;62.45
36138;BME280;67787;50.074;21.904;2023-02-28T08:21:10;100497.98;;;-1.16;62.66
36138;BME280;67787;50.074;21.904;2023-02-28T08:23:38;100497.63;;;-1.10;62.57
36138;BME280;67787;50.074;21.904;2023-02-28T08:26:06;100500.23;;;-1.09;62.40
36138;BME280;67787;50.074;21.904;2023-02-28T08:28:35;100496.41;;;-1.06;62.47
36138;BME280;67787;50.074;21.904;2023-02-28T08:31:08;100497.95;;;-1.00;62.64
36138;BME280;67787;50.074;21.904;2023-02-28T08:33:36;100499.51;;;-0.95;62.60
36138;BME280;67787;50.074;21.904;2023-02-28T08:36:07;100497.77;;;-0.93;62.68
36138;BME280;67787;50.074;21.904;2023-02-28T08:38:37;100501.07;;;-0.90;62.44
36138;BME280;67787;50.074;21.904;2023-02-28T08:41:07;100497.23;;;-0.87;62.54
36138;BME280;67787;50.074;21.904;2023-02-28T08:43:37;100496.87;;;-0.83;62.45
36138;BME280;67787;50.074;21.904;2023-02-28T08:46:06;100493.02;;;-0.80;62.62
36138;BME280;67787;50.074;21.904;2023-02-28T08:48:42;100495.45;;;-0.79;62.40
36138;BME280;67787;50.074;21.904;2023-02-28T08:51:29;100492.67;;;-0.78;62.50
36138;BME280;67787;50.074;21.904;2023-02-28T08:53:59;100492.48;;;-0.74;62.57
36138;BME280;67787;50.074;21.904;2023-02-28T08:56:28;100494.73;;;-0.66;62.48
36138;BME280;67787;50.074;21.904;2023-02-28T08:58:57;100501.14;;;-0.59;62.41
36138;BME280;67787;50.074;21.904;2023-02-28T09:01:27;100500.63;;;-0.61;62.42
36138;BME280;67787;50.074;21.904;2023-02-28T09:03:57;100499.59;;;-0.63;62.37
36138;BME280;67787;50.074;21.904;2023-02-28T09:06:26;100495.23;;;-0.64;62.39
36138;BME280;67787;50.074;21.904;2023-02-28T09:08:58;100499.23;;;-0.62;62.50
36138;BME280;67787;50.074;21.904;2023-02-28T09:11:28;100498.70;;;-0.59;62.46
36138;BME280;67787;50.074;21.904;2023-02-28T09:13:57;100495.21;;;-0.60;62.38
36138;BME280;67787;50.074;21.904;2023-02-28T09:16:27;100491.91;;;-0.58;62.46
36138;BME280;67787;50.074;21.904;2023-02-28T09:18:55;100494.66;;;-0.53;62.54
36138;BME280;67787;50.074;21.904;2023-02-28T09:21:23;100497.29;;;-0.53;62.56
36138;BME280;67787;50.074;21.904;2023-02-28T09:23:52;100494.51;;;-0.55;62.33
36138;BME280;67787;50.074;21.904;2023-02-28T09:26:26;100496.23;;;-0.54;62.44
36138;BME280;67787;50.074;21.904;2023-02-28T09:29:05;100490.30;;;-0.47;62.37
36138;BME280;67787;50.074;21.904;2023-02-28T09:31:34;100492.88;;;-0.40;62.37
36138;BME280;67787;50.074;21.904;2023-02-28T09:34:03;100490.09;;;-0.40;62.35
36138;BME280;67787;50.074;21.904;2023-02-28T09:36:32;100491.31;;;-0.41;62.34
36138;BME280;67787;50.074;21.904;2023-02-28T09:39:12;100493.23;;;-0.41;62.39
36138;BME280;67787;50.074;21.904;2023-02-28T09:41:45;100495.84;;;-0.41;62.34
36138;BME280;67787;50.074;21.904;2023-02-28T09:47:08;100493.41;;;-0.42;62.38
36138;BME280;67787;50.074;21.904;2023-02-28T09:49:42;100491.98;;;-0.38;62.42
36138;BME280;67787;50.074;21.904;2023-02-28T09:52:20;100490.59;;;-0.37;62.51
36138;BME280;67787;50.074;21.904;2023-02-28T09:54:49;100491.09;;;-0.30;62.52
36138;BME280;67787;50.074;21.904;2023-02-28T09:57:26;100492.97;;;-0.23;62.52
36138;BME280;67787;50.074;21.904;2023-02-28T10:00:19;100497.64;;;-0.19;62.30
36138;BME280;67787;50.074;21.904;2023-02-28T10:05:51;100484.89;;;-0.12;62.46
36138;BME280;67787;50.074;21.904;2023-02-28T10:08:30;100487.63;;;-0.05;62.69
36138;BME280;67787;50.074;21.904;2023-02-28T10:11:03;100483.73;;;0.04;62.41
36138;BME280;67787;50.074;21.904;2023-02-28T10:14:05;100484.21;;;0.10;62.50
36138;BME280;67787;50.074;21.904;2023-02-28T10:16:58;100482.06;;;0.19;62.46
36138;BME280;67787;50.074;21.904;2023-02-28T10:25:36;100472.40;;;0.27;62.45
36138;BME280;67787;50.074;21.904;2023-02-28T10:28:10;100469.27;;;0.27;62.40
36138;BME280;67787;50.074;21.904;2023-02-28T10:30:51;100461.90;;;0.30;62.27
36138;BME280;67787;50.074;21.904;2023-02-28T10:33:40;100458.56;;;0.35;62.34
36138;BME280;67787;50.074;21.904;2023-02-28T10:36:13;100450.47;;;0.41;62.39
36138;BME280;67787;50.074;21.904;2023-02-28T10:38:43;100449.90;;;0.48;62.46
36138;BME280;67787;50.074;21.904;2023-02-28T10:41:27;100443.58;;;0.51;62.43
36138;BME280;67787;50.074;21.904;2023-02-28T10:44:15;100440.90;;;0.58;62.45
36138;BME280;67787;50.074;21.904;2023-02-28T10:46:45;100437.52;;;0.65;62.62
36138;BME280;67787;50.074;21.904;2023-02-28T10:49:25;100436.56;;;0.74;62.41
36138;BME280;67787;50.074;21.904;2023-02-28T10:51:59;100433.36;;;0.79;62.49
36138;BME280;67787;50.074;21.904;2023-02-28T10:54:31;100432.29;;;0.81;62.36
36138;BME280;67787;50.074;21.904;2023-02-28T10:57:18;100432.27;;;0.82;62.35
36138;BME280;67787;50.074;21.904;2023-02-28T10:59:52;100432.67;;;0.78;62.39
36138;BME280;67787;50.074;21.904;2023-02-28T11:04:57;100425.59;;;0.70;62.26
36138;BME280;67787;50.074;21.904;2023-02-28T11:07:26;100425.06;;;0.69;62.11
36138;BME280;67787;50.074;21.904;2023-02-28T11:10:19;100426.67;;;0.66;62.23
36138;BME280;67787;50.074;21.904;2023-02-28T11:12:49;100419.71;;;0.64;62.17
36138;BME280;67787;50.074;21.904;2023-02-28T11:15:24;100420.90;;;0.67;62.09
36138;BME280;67787;50.074;21.904;2023-02-28T11:17:56;100418.61;;;0.69;62.20
36138;BME280;67787;50.074;21.904;2023-02-28T11:20:28;100415.87;;;0.64;61.99
36138;BME280;67787;50.074;21.904;2023-02-28T11:22:58;100414.67;;;0.62;62.16
36138;BME280;67787;50.074;21.904;2023-02-28T11:28:02;100416.36;;;0.67;62.13
36138;BME280;67787;50.074;21.904;2023-02-28T11:30:38;100416.85;;;0.71;62.01
36138;BME280;67787;50.074;21.904;2023-02-28T11:38:48;100412.01;;;0.67;62.06
36138;BME280;67787;50.074;21.904;2023-02-28T11:41:32;100409.23;;;0.64;61.88
36138;BME280;67787;50.074;21.904;2023-02-28T11:46:52;100409.03;;;0.66;62.04
36138;BME280;67787;50.074;21.904;2023-02-28T11:52:00;100411.21;;;0.77;62.01
36138;BME280;67787;50.074;21.904;2023-02-28T11:54:49;100407.89;;;0.77;61.91
36138;BME280;67787;50.074;21.904;2023-02-28T11:57:35;100412.04;;;0.80;61.97
36138;BME280;67787;50.074;21.904;2023-02-28T12:05:50;100408.95;;;0.92;61.89
36138;BME280;67787;50.074;21.904;2023-02-28T12:11:48;100399.86;;;1.06;62.01
36138;BME280;67787;50.074;21.904;2023-02-28T12:17:38;100397.38;;;1.24;62.13
36138;BME280;67787;50.074;21.904;2023-02-28T12:19:51;100396.42;;;1.28;62.03
36138;BME280;67787;50.074;21.904;2023-02-28T12:22:31;100393.40;;;1.34;62.02
36138;BME280;67787;50.074;21.904;2023-02-28T12:27:37;100388.71;;;1.44;62.17
36138;BME280;67787;50.074;21.904;2023-02-28T12:30:21;100384.09;;;1.49;62.14
36138;BME280;67787;50.074;21.904;2023-02-28T12:32:54;100385.58;;;1.57;62.05
36138;BME280;67787;50.074;21.904;2023-02-28T12:35:54;100383.25;;;1.60;61.96
36138;BME280;67787;50.074;21.904;2023-02-28T12:38:45;100379.86;;;1.63;61.94
36138;BME280;67787;50.074;21.904;2023-02-28T12:44:15;100375.05;;;1.70;62.04
36138;BME280;67787;50.074;21.904;2023-02-28T12:46:49;100376.17;;;1.77;62.06
36138;BME280;67787;50.074;21.904;2023-02-28T12:49:36;100377.17;;;1.82;62.01
36138;BME280;67787;50.074;21.904;2023-02-28T12:52:07;100377.59;;;1.87;61.86
36138;BME280;67787;50.074;21.904;2023-02-28T12:54:52;100377.01;;;1.90;61.78
36138;BME280;67787;50.074;21.904;2023-02-28T12:57:34;100367.94;;;1.89;61.72
36138;BME280;67787;50.074;21.904;2023-02-28T13:00:16;100366.92;;;1.87;61.58
36138;BME280;67787;50.074;21.904;2023-02-28T13:10:56;100360.85;;;1.72;61.76
36138;BME280;67787;50.074;21.904;2023-02-28T13:13:27;100362.98;;;1.71;61.88
36138;BME280;67787;50.074;21.904;2023-02-28T13:16:05;100359.51;;;1.69;61.74
36138;BME280;67787;50.074;21.904;2023-02-28T13:18:45;100358.67;;;1.66;61.54
36138;BME280;67787;50.074;21.904;2023-02-28T13:21:26;100351.14;;;1.67;61.34
36138;BME280;67787;50.074;21.904;2023-02-28T13:24:04;100351.06;;;1.73;61.52
36138;BME280;67787;50.074;21.904;2023-02-28T13:34:41;100346.08;;;1.88;61.37
36138;BME280;67787;50.074;21.904;2023-02-28T13:39:51;100341.73;;;1.76;61.70
36138;BME280;67787;50.074;21.904;2023-02-28T13:42:35;100340.27;;;1.69;61.30
36138;BME280;67787;50.074;21.904;2023-02-28T13:47:43;100330.54;;;1.54;61.54
36138;BME280;67787;50.074;21.904;2023-02-28T13:50:27;100327.97;;;1.50;61.47
36138;BME280;67787;50.074;21.904;2023-02-28T13:58:52;100320.31;;;1.47;61.57
36138;BME280;67787;50.074;21.904;2023-02-28T14:04:22;100311.56;;;1.47;61.48
36138;BME280;67787;50.074;21.904;2023-02-28T14:07:01;100314.72;;;1.47;61.53
36138;BME280;67787;50.074;21.904;2023-02-28T14:09:34;100313.98;;;1.50;61.26
36138;BME280;67787;50.074;21.904;2023-02-28T14:15:47;100317.55;;;1.57;61.49
36138;BME280;67787;50.074;21.904;2023-02-28T14:18:22;100315.57;;;1.61;61.41
36138;BME280;67787;50.074;21.904;2023-02-28T14:24:09;100314.71;;;1.70;61.46
36138;BME280;67787;50.074;21.904;2023-02-28T14:26:56;100311.73;;;1.72;61.21
36138;BME280;67787;50.074;21.904;2023-02-28T14:34:58;100314.61;;;1.65;61.52
36138;BME280;67787;50.074;21.904;2023-02-28T14:37:33;100314.69;;;1.62;61.15
36138;BME280;67787;50.074;21.904;2023-02-28T14:40:12;100313.86;;;1.58;61.33
36138;BME280;67787;50.074;21.904;2023-02-28T14:42:48;100313.24;;;1.53;61.51
36138;BME280;67787;50.074;21.904;2023-02-28T14:45:22;100311.40;;;1.47;61.31
36138;BME280;67787;50.074;21.904;2023-02-28T14:47:51;100309.71;;;1.43;61.36
36138;BME280;67787;50.074;21.904;2023-02-28T14:50:23;100312.73;;;1.41;61.33
36138;BME280;67787;50.074;21.904;2023-02-28T14:52:53;100311.39;;;1.37;61.07
36138;BME280;67787;50.074;21.904;2023-02-28T14:55:28;100310.89;;;1.35;61.25
36138;BME280;67787;50.074;21.904;2023-02-28T14:58:02;100312.48;;;1.33;61.18
36138;BME280;67787;50.074;21.904;2023-02-28T15:00:37;100309.57;;;1.30;61.00
36138;BME280;67787;50.074;21.904;2023-02-28T15:03:40;100311.35;;;1.27;61.14
36138;BME280;67787;50.074;21.904;2023-02-28T15:06:15;100310.71;;;1.23;61.29
36138;BME280;67787;50.074;21.904;2023-02-28T15:09:07;100306.40;;;1.20;60.90
36138;BME280;67787;50.074;21.904;2023-02-28T15:11:36;100304.15;;;1.17;61.05
36138;BME280;67787;50.074;21.904;2023-02-28T15:14:04;100306.96;;;1.16;61.15